Terminal Aerodrome Forecast
Issued by NWS Mt. Holly, NJ

Home | Current Version | Previous Version | Text Only | Print | Product List | Glossary On
Versions: 1 2 3 4 5 6 7 8 9 10 11 12 13 14 15 16 17 18 19 20
192
FTUS41 KPHI 301740
TAFACY
TAF
KACY 301740Z 3018/0118 05015G25KT 1SM -RA BR OVC009
      TEMPO 3018/3022 4SM -DZ BR OVC006
     FM302200 05015KT 2SM -DZ BR OVC005
     FM010000 06011KT 3SM -DZ BR OVC006=

USA.gov is the U.S. government's official web portal to all federal, state and local government web resources and services.